createdAt,value
2018-02-09T00:01:54.557Z,-2.80
2018-02-09T00:04:22.115Z,-2.80
2018-02-09T00:06:49.779Z,-2.80
2018-02-09T00:09:17.458Z,-2.90
2018-02-09T00:11:45.036Z,-2.90
2018-02-09T00:14:12.626Z,-2.90
2018-02-09T00:16:41.015Z,-2.90
2018-02-09T00:19:08.573Z,-2.90
2018-02-09T00:21:37.097Z,-2.90
2018-02-09T00:24:04.653Z,-2.90
2018-02-09T00:26:32.194Z,-2.90
2018-02-09T00:28:59.767Z,-2.90
2018-02-09T00:31:27.309Z,-2.90
2018-02-09T00:33:54.824Z,-2.90
2018-02-09T00:36:22.374Z,-2.90
2018-02-09T00:38:49.938Z,-2.90
2018-02-09T00:41:18.383Z,-2.90
2018-02-09T00:43:45.971Z,-3.00
2018-02-09T00:46:13.487Z,-3.00
2018-02-09T00:48:41.884Z,-3.00
2018-02-09T00:51:10.348Z,-2.90
2018-02-09T00:53:37.874Z,-3.00
2018-02-09T00:56:06.288Z,-3.00
2018-02-09T00:58:33.818Z,-3.00
2018-02-09T01:01:02.159Z,-3.00
2018-02-09T01:03:29.713Z,-3.00
2018-02-09T01:05:57.269Z,-3.00
2018-02-09T01:08:24.822Z,-3.00
2018-02-09T01:10:52.380Z,-3.00
2018-02-09T01:13:20.014Z,-3.00
2018-02-09T01:15:47.561Z,-3.00
2018-02-09T01:18:15.078Z,-3.00
2018-02-09T01:20:42.640Z,-3.00
2018-02-09T01:23:10.596Z,-3.10
2018-02-09T01:25:38.179Z,-3.10
2018-02-09T01:28:05.753Z,-3.00
2018-02-09T01:30:34.084Z,-3.10
2018-02-09T01:33:01.630Z,-3.10
2018-02-09T01:35:29.238Z,-3.10
2018-02-09T01:37:56.943Z,-3.10
2018-02-09T01:40:24.555Z,-3.00
2018-02-09T01:42:52.267Z,-3.00
2018-02-09T01:45:19.840Z,-3.10
2018-02-09T01:47:47.475Z,-3.00
2018-02-09T01:50:15.898Z,-3.00
2018-02-09T01:52:43.468Z,-3.10
2018-02-09T01:55:11.533Z,-3.10
2018-02-09T01:57:39.062Z,-3.10
2018-02-09T02:00:06.580Z,-3.10
2018-02-09T02:02:34.893Z,-3.10
2018-02-09T02:05:02.413Z,-3.10
2018-02-09T02:07:29.987Z,-3.10
2018-02-09T02:09:58.500Z,-3.20
2018-02-09T02:12:26.031Z,-3.30
2018-02-09T02:14:53.550Z,-3.30
2018-02-09T02:17:21.145Z,-3.30
2018-02-09T02:19:49.497Z,-3.30
2018-02-09T02:22:17.069Z,-3.30
2018-02-09T02:24:45.381Z,-3.30
2018-02-09T02:27:12.932Z,-3.30
2018-02-09T02:29:40.484Z,-3.20
2018-02-09T02:32:09.166Z,-3.30
2018-02-09T02:34:37.480Z,-3.30
2018-02-09T02:37:05.127Z,-3.30
2018-02-09T02:39:42.613Z,-3.30
2018-02-09T02:42:10.166Z,-3.30
2018-02-09T02:44:37.755Z,-3.30
2018-02-09T02:47:05.355Z,-3.30
2018-02-09T02:49:32.919Z,-3.30
2018-02-09T02:52:01.293Z,-3.30
2018-02-09T02:54:28.950Z,-3.40
2018-02-09T02:56:56.529Z,-3.40
2018-02-09T02:59:24.811Z,-3.40
2018-02-09T03:01:53.201Z,-3.40
2018-02-09T03:04:20.721Z,-3.40
2018-02-09T03:06:48.262Z,-3.40
2018-02-09T03:09:15.887Z,-3.40
2018-02-09T03:11:43.453Z,-3.50
2018-02-09T03:14:10.975Z,-3.60
2018-02-09T03:16:39.341Z,-3.70
2018-02-09T03:19:06.900Z,-3.70
2018-02-09T03:21:34.528Z,-3.70
2018-02-09T03:24:02.072Z,-3.70
2018-02-09T03:26:29.643Z,-3.80
2018-02-09T03:28:57.172Z,-3.70
2018-02-09T03:31:24.776Z,-3.70
2018-02-09T03:33:52.370Z,-3.80
2018-02-09T03:36:20.716Z,-3.90
2018-02-09T03:38:48.267Z,-3.80
2018-02-09T03:41:15.859Z,-3.90
2018-02-09T03:43:43.434Z,-3.90
2018-02-09T03:46:11.003Z,-4.00
2018-02-09T03:48:38.581Z,-3.90
2018-02-09T03:51:06.200Z,-4.00
2018-02-09T03:53:33.755Z,-4.00
2018-02-09T03:56:01.309Z,-4.00
2018-02-09T03:58:29.622Z,-4.00
2018-02-09T04:00:57.308Z,-4.00
2018-02-09T04:03:24.869Z,-4.00
2018-02-09T04:05:52.467Z,-3.90
2018-02-09T04:08:19.989Z,-3.90
2018-02-09T04:10:47.567Z,-3.80
2018-02-09T04:13:15.108Z,-3.80
2018-02-09T04:15:42.756Z,-3.80
2018-02-09T04:18:10.335Z,-3.70
2018-02-09T04:20:37.944Z,-3.70
2018-02-09T04:23:09.331Z,-3.70
2018-02-09T04:25:36.893Z,-3.70
2018-02-09T04:28:04.484Z,-3.70
2018-02-09T04:30:32.226Z,-3.70
2018-02-09T04:32:59.743Z,-3.70
2018-02-09T04:35:28.185Z,-3.70
2018-02-09T04:37:55.751Z,-3.70
2018-02-09T04:40:23.295Z,-3.70
2018-02-09T04:42:50.952Z,-3.80
2018-02-09T04:45:18.488Z,-3.80
2018-02-09T04:47:46.363Z,-3.80
2018-02-09T04:50:14.055Z,-3.80
2018-02-09T04:52:41.595Z,-3.80
2018-02-09T04:55:09.148Z,-3.80
2018-02-09T04:57:36.706Z,-3.80
2018-02-09T05:00:04.288Z,-3.80
2018-02-09T05:02:31.825Z,-3.80
2018-02-09T05:04:59.486Z,-3.80
2018-02-09T05:07:27.202Z,-3.70
2018-02-09T05:09:54.778Z,-3.70
2018-02-09T05:12:23.054Z,-3.80
2018-02-09T05:14:51.385Z,-3.80
2018-02-09T05:17:19.026Z,-3.80
2018-02-09T05:19:46.568Z,-3.80
2018-02-09T05:22:14.131Z,-3.80
2018-02-09T05:24:41.710Z,-3.80
2018-02-09T05:27:09.243Z,-3.80
2018-02-09T05:29:36.823Z,-3.80
2018-02-09T05:32:04.355Z,-3.80
2018-02-09T05:34:31.934Z,-3.80
2018-02-09T05:36:59.484Z,-3.80
2018-02-09T05:39:27.060Z,-3.80
2018-02-09T05:41:54.594Z,-3.80
2018-02-09T05:44:22.159Z,-3.80
2018-02-09T05:46:49.840Z,-3.80
2018-02-09T05:49:17.384Z,-3.80
2018-02-09T05:51:45.018Z,-3.80
2018-02-09T05:54:13.333Z,-3.90
2018-02-09T05:56:40.943Z,-3.90
2018-02-09T05:59:09.431Z,-3.90
2018-02-09T06:01:36.958Z,-3.90
2018-02-09T06:04:04.504Z,-3.90
2018-02-09T06:06:32.139Z,-3.90
2018-02-09T06:08:59.779Z,-3.90
2018-02-09T06:11:28.091Z,-3.90
2018-02-09T06:13:55.652Z,-3.90
2018-02-09T06:16:23.258Z,-3.90
2018-02-09T06:18:50.870Z,-3.90
2018-02-09T06:21:18.403Z,-3.90
2018-02-09T06:23:46.003Z,-3.90
2018-02-09T06:26:13.648Z,-3.90
2018-02-09T06:28:41.218Z,-3.90
2018-02-09T06:31:08.773Z,-3.90
2018-02-09T06:33:36.377Z,-3.90
2018-02-09T06:36:03.981Z,-3.90
2018-02-09T06:38:31.522Z,-3.80
2018-02-09T06:41:00.320Z,-3.90
2018-02-09T06:43:27.874Z,-3.90
2018-02-09T06:45:56.588Z,-3.90
2018-02-09T06:48:24.109Z,-3.90
2018-02-09T06:50:51.692Z,-3.90
2018-02-09T06:53:19.238Z,-3.90
2018-02-09T06:55:46.814Z,-3.90
2018-02-09T06:58:14.476Z,-3.90
2018-02-09T07:00:42.020Z,-3.90
2018-02-09T07:03:09.556Z,-3.80
2018-02-09T07:05:37.110Z,-3.90
2018-02-09T07:08:04.636Z,-3.80
2018-02-09T07:10:32.264Z,-3.70
2018-02-09T07:12:59.801Z,-3.60
2018-02-09T07:15:28.933Z,-3.40
2018-02-09T07:17:56.475Z,-3.50
2018-02-09T07:20:24.078Z,-3.40
2018-02-09T07:22:51.694Z,-3.30
2018-02-09T07:25:19.392Z,-3.10
2018-02-09T07:27:47.035Z,-3.00
2018-02-09T07:30:14.627Z,-2.80
2018-02-09T07:32:42.168Z,-2.80
2018-02-09T07:35:09.760Z,-2.60
2018-02-09T07:37:38.840Z,-2.50
2018-02-09T07:40:06.391Z,-2.60
2018-02-09T07:42:34.175Z,-2.50
2018-02-09T07:45:02.515Z,-2.20
2018-02-09T07:47:30.094Z,-2.30
2018-02-09T07:49:57.634Z,-2.00
2018-02-09T07:52:25.275Z,-1.90
2018-02-09T07:54:52.849Z,-1.80
2018-02-09T07:57:20.526Z,-1.60
2018-02-09T07:59:48.118Z,-1.50
2018-02-09T08:02:16.759Z,-1.30
2018-02-09T08:04:44.284Z,-1.30
2018-02-09T08:07:12.645Z,-1.30
2018-02-09T08:09:40.165Z,-1.30
2018-02-09T08:12:09.429Z,-1.10
2018-02-09T08:14:37.845Z,-0.80
2018-02-09T08:17:05.370Z,-0.90
2018-02-09T08:19:32.938Z,-0.80
2018-02-09T08:22:00.525Z,-0.90
2018-02-09T08:24:28.539Z,-0.80
2018-02-09T08:26:56.847Z,-0.90
2018-02-09T08:29:24.450Z,-0.90
2018-02-09T08:31:52.210Z,-0.90
2018-02-09T08:34:19.832Z,-0.80
2018-02-09T08:36:47.366Z,-0.70
2018-02-09T08:39:16.645Z,0.00
2018-02-09T08:41:44.246Z,0.00
2018-02-09T08:44:11.828Z,0.40
2018-02-09T08:46:39.504Z,0.80
2018-02-09T08:49:07.108Z,1.00
2018-02-09T08:51:35.404Z,0.80
2018-02-09T08:54:03.027Z,0.80
2018-02-09T08:56:30.535Z,1.10
2018-02-09T08:58:58.100Z,1.30
2018-02-09T09:01:25.726Z,1.30
2018-02-09T09:03:54.122Z,1.70
2018-02-09T09:06:21.776Z,1.70
2018-02-09T09:08:49.343Z,2.00
2018-02-09T09:11:16.904Z,2.10
2018-02-09T09:13:44.492Z,2.80
2018-02-09T09:16:12.032Z,2.90
2018-02-09T09:18:39.683Z,2.70
2018-02-09T09:21:07.228Z,2.90
2018-02-09T09:23:35.665Z,3.10
2018-02-09T09:26:04.016Z,3.10
2018-02-09T09:28:31.582Z,3.20
2018-02-09T09:30:59.104Z,3.00
2018-02-09T09:33:26.676Z,3.10
2018-02-09T09:35:54.229Z,3.30
2018-02-09T09:38:21.774Z,3.20
2018-02-09T09:40:50.184Z,2.70
2018-02-09T09:43:17.730Z,2.70
2018-02-09T09:45:55.211Z,2.80
2018-02-09T09:48:22.813Z,3.00
2018-02-09T09:50:50.336Z,2.80
2018-02-09T09:53:18.039Z,2.60
2018-02-09T09:55:45.595Z,2.90
2018-02-09T09:58:13.123Z,2.90
2018-02-09T10:00:40.654Z,3.20
2018-02-09T10:03:09.000Z,3.40
2018-02-09T10:05:36.700Z,3.40
2018-02-09T10:08:05.014Z,3.30
2018-02-09T10:10:32.527Z,3.30
2018-02-09T10:13:00.879Z,3.90
2018-02-09T10:15:33.998Z,3.90
2018-02-09T10:18:03.729Z,3.70
2018-02-09T10:20:32.027Z,3.40
2018-02-09T10:22:59.763Z,3.40
2018-02-09T10:25:27.300Z,3.50
2018-02-09T10:27:55.876Z,3.00
2018-02-09T10:30:24.284Z,3.00
2018-02-09T10:32:51.950Z,3.00
2018-02-09T10:35:19.459Z,3.40
2018-02-09T10:37:46.970Z,3.70
2018-02-09T10:40:14.512Z,3.10
2018-02-09T10:42:42.039Z,3.00
2018-02-09T10:45:09.672Z,3.00
2018-02-09T10:47:37.217Z,2.50
2018-02-09T10:50:04.874Z,2.20
2018-02-09T10:52:32.416Z,2.20
2018-02-09T10:55:00.017Z,2.20
2018-02-09T10:57:27.556Z,2.30
2018-02-09T10:59:55.181Z,1.80
2018-02-09T11:02:23.449Z,1.40
2018-02-09T11:04:51.769Z,1.40
2018-02-09T11:07:19.284Z,1.40
2018-02-09T11:09:48.794Z,1.90
2018-02-09T11:12:27.031Z,2.60
2018-02-09T11:14:54.585Z,2.60
2018-02-09T11:17:22.116Z,2.80
2018-02-09T11:19:49.660Z,1.90
2018-02-09T11:22:17.259Z,1.60
2018-02-09T11:24:44.839Z,1.80
2018-02-09T11:27:12.380Z,1.80
2018-02-09T11:29:39.959Z,1.90
2018-02-09T11:32:07.514Z,1.90
2018-02-09T11:34:35.044Z,2.00
2018-02-09T11:37:03.321Z,2.30
2018-02-09T11:39:30.877Z,2.30
2018-02-09T11:41:59.229Z,2.00
2018-02-09T11:44:26.766Z,2.00
2018-02-09T11:46:54.352Z,1.80
2018-02-09T11:49:21.969Z,1.60
2018-02-09T11:51:49.487Z,1.40
2018-02-09T11:54:17.843Z,1.30
2018-02-09T11:56:45.376Z,1.20
2018-02-09T11:59:12.940Z,1.50
2018-02-09T12:01:40.472Z,1.70
2018-02-09T12:04:08.058Z,2.00
2018-02-09T12:06:35.923Z,2.20
2018-02-09T12:09:03.647Z,2.10
2018-02-09T12:11:31.170Z,2.30
2018-02-09T12:13:58.766Z,2.10
2018-02-09T12:16:28.196Z,1.90
2018-02-09T12:18:55.797Z,2.00
2018-02-09T12:21:23.333Z,1.70
2018-02-09T12:23:50.899Z,1.60
2018-02-09T12:26:18.426Z,1.40
2018-02-09T12:28:46.020Z,1.30
2018-02-09T12:31:13.580Z,1.30
2018-02-09T12:33:41.153Z,1.30
2018-02-09T12:36:09.075Z,1.40
2018-02-09T12:38:36.686Z,1.40
2018-02-09T12:41:04.235Z,1.40
2018-02-09T12:43:32.737Z,1.40
2018-02-09T12:46:01.067Z,1.50
2018-02-09T12:48:28.621Z,1.50
2018-02-09T12:50:56.283Z,1.70
2018-02-09T12:53:24.030Z,1.80
2018-02-09T12:55:51.608Z,1.70
2018-02-09T12:58:19.171Z,1.70
2018-02-09T13:00:47.587Z,1.70
2018-02-09T13:03:15.146Z,1.80
2018-02-09T13:05:42.699Z,1.90
2018-02-09T13:08:10.290Z,1.80
2018-02-09T13:10:37.810Z,1.90
2018-02-09T13:13:07.360Z,1.90
2018-02-09T13:15:34.899Z,1.90
2018-02-09T13:18:04.524Z,1.90
2018-02-09T13:20:32.051Z,1.90
2018-02-09T13:23:11.632Z,1.90
2018-02-09T13:25:39.198Z,2.00
2018-02-09T13:28:06.743Z,1.90
2018-02-09T13:30:34.330Z,1.70
2018-02-09T13:33:13.860Z,1.80
2018-02-09T13:35:41.650Z,1.70
2018-02-09T13:38:09.246Z,1.60
2018-02-09T13:40:37.613Z,1.60
2018-02-09T13:43:05.173Z,1.60
2018-02-09T13:45:32.713Z,1.70
2018-02-09T13:48:00.308Z,1.90
2018-02-09T13:50:28.647Z,1.90
2018-02-09T13:52:56.319Z,1.90
2018-02-09T13:55:23.857Z,1.90
2018-02-09T13:57:51.473Z,1.90
2018-02-09T14:00:19.750Z,2.00
2018-02-09T14:02:48.194Z,2.10
2018-02-09T14:05:15.755Z,2.10
2018-02-09T14:07:43.301Z,2.00
2018-02-09T14:10:10.828Z,2.00
2018-02-09T14:12:38.608Z,2.00
2018-02-09T14:15:06.168Z,1.90
2018-02-09T14:17:33.683Z,1.80
2018-02-09T14:20:02.009Z,1.70
2018-02-09T14:22:29.523Z,1.70
2018-02-09T14:24:57.863Z,1.60
2018-02-09T14:27:25.392Z,1.50
2018-02-09T14:29:53.002Z,1.60
2018-02-09T14:32:20.516Z,1.60
2018-02-09T14:34:48.147Z,1.50
2018-02-09T14:37:16.622Z,1.50
2018-02-09T14:39:45.026Z,1.60
2018-02-09T14:42:12.534Z,1.50
2018-02-09T14:44:40.105Z,1.60
2018-02-09T14:47:09.006Z,1.70
2018-02-09T14:49:37.851Z,1.60
2018-02-09T14:52:05.481Z,1.60
2018-02-09T14:54:33.032Z,1.60
2018-02-09T14:57:00.582Z,1.60
2018-02-09T14:59:28.971Z,1.60
2018-02-09T15:01:56.493Z,1.60
2018-02-09T15:04:24.135Z,1.60
2018-02-09T15:06:51.697Z,1.70
2018-02-09T15:09:19.258Z,1.60
2018-02-09T15:11:46.878Z,1.60
2018-02-09T15:14:14.632Z,1.60
2018-02-09T15:16:42.966Z,1.60
2018-02-09T15:19:10.529Z,1.50
2018-02-09T15:21:38.213Z,1.60
2018-02-09T15:24:06.588Z,1.50
2018-02-09T15:26:34.882Z,1.50
2018-02-09T15:29:02.571Z,1.40
2018-02-09T15:31:30.104Z,1.40
2018-02-09T15:33:58.455Z,1.30
2018-02-09T15:36:26.115Z,1.30
2018-02-09T15:38:53.642Z,1.30
2018-02-09T15:41:21.218Z,1.30
2018-02-09T15:43:48.843Z,1.20
2018-02-09T15:46:16.401Z,1.20
2018-02-09T15:48:44.140Z,1.20
2018-02-09T15:51:12.500Z,1.10
2018-02-09T15:53:40.048Z,1.10
2018-02-09T15:56:08.896Z,1.10
2018-02-09T15:58:36.543Z,1.10
2018-02-09T16:01:04.099Z,1.10
2018-02-09T16:03:31.796Z,1.10
2018-02-09T16:05:59.624Z,1.00
2018-02-09T16:08:27.958Z,1.00
2018-02-09T16:10:55.502Z,1.00
2018-02-09T16:13:23.047Z,1.00
2018-02-09T16:15:50.621Z,1.00
2018-02-09T16:18:18.192Z,1.00
2018-02-09T16:20:45.768Z,0.90
2018-02-09T16:23:13.363Z,0.90
2018-02-09T16:25:40.876Z,0.90
2018-02-09T16:28:08.477Z,0.90
2018-02-09T16:30:36.002Z,0.80
2018-02-09T16:33:05.038Z,0.80
2018-02-09T16:35:32.564Z,0.80
2018-02-09T16:38:00.352Z,0.80
2018-02-09T16:40:27.907Z,0.70
2018-02-09T16:42:56.296Z,0.70
2018-02-09T16:45:23.842Z,0.70
2018-02-09T16:47:52.132Z,0.80
2018-02-09T16:50:19.794Z,0.80
2018-02-09T16:52:47.361Z,0.80
2018-02-09T16:55:14.957Z,0.70
2018-02-09T16:57:42.715Z,0.70
2018-02-09T17:00:10.300Z,0.60
2018-02-09T17:02:37.974Z,0.60
2018-02-09T17:05:05.552Z,0.60
2018-02-09T17:07:33.867Z,0.50
2018-02-09T17:10:01.522Z,0.50
2018-02-09T17:12:30.061Z,0.50
2018-02-09T17:14:58.398Z,0.50
2018-02-09T17:17:25.912Z,0.50
2018-02-09T17:19:53.447Z,0.50
2018-02-09T17:22:21.051Z,0.50
2018-02-09T17:24:48.699Z,0.50
2018-02-09T17:27:16.233Z,0.50
2018-02-09T17:29:43.904Z,0.50
2018-02-09T17:32:12.198Z,0.50
2018-02-09T17:34:39.783Z,0.50
2018-02-09T17:37:07.319Z,0.50
2018-02-09T17:39:34.881Z,0.50
2018-02-09T17:42:02.452Z,0.50
2018-02-09T17:44:30.108Z,0.50
2018-02-09T17:46:57.668Z,0.50
2018-02-09T17:49:25.288Z,0.50
2018-02-09T17:51:52.859Z,0.50
2018-02-09T17:54:21.314Z,0.60
2018-02-09T17:56:48.946Z,0.50
2018-02-09T17:59:16.608Z,0.60
2018-02-09T18:01:44.211Z,0.60
2018-02-09T18:04:11.763Z,0.60
2018-02-09T18:06:39.325Z,0.60
2018-02-09T18:09:06.922Z,0.60
2018-02-09T18:11:34.643Z,0.70
2018-02-09T18:14:02.353Z,0.80
2018-02-09T18:16:29.923Z,0.80
2018-02-09T18:18:57.431Z,0.80
2018-02-09T18:21:24.972Z,0.80
2018-02-09T18:23:52.524Z,0.80
2018-02-09T18:26:20.172Z,1.00
2018-02-09T18:28:47.713Z,1.00
2018-02-09T18:31:15.339Z,0.90
2018-02-09T18:33:42.950Z,0.90
2018-02-09T18:36:10.532Z,0.80
2018-02-09T18:38:38.087Z,0.70
2018-02-09T18:41:05.660Z,0.70
2018-02-09T18:43:33.859Z,0.70
2018-02-09T18:46:02.218Z,0.70
2018-02-09T18:48:29.739Z,0.70
2018-02-09T18:50:57.357Z,0.70
2018-02-09T18:53:25.724Z,0.70
2018-02-09T18:55:53.275Z,0.70
2018-02-09T18:58:30.720Z,0.80
2018-02-09T19:00:58.263Z,0.80
2018-02-09T19:03:25.797Z,0.70
2018-02-09T19:05:54.167Z,0.70
2018-02-09T19:08:21.775Z,0.70
2018-02-09T19:10:49.379Z,0.70
2018-02-09T19:13:16.911Z,0.70
2018-02-09T19:15:44.505Z,0.70
2018-02-09T19:18:12.721Z,0.70
2018-02-09T19:20:40.332Z,0.70
2018-02-09T19:23:07.852Z,0.70
2018-02-09T19:25:35.510Z,0.70
2018-02-09T19:28:03.118Z,0.70
2018-02-09T19:30:30.729Z,0.70
2018-02-09T19:32:58.714Z,0.70
2018-02-09T19:35:26.288Z,0.70
2018-02-09T19:37:53.802Z,0.80
2018-02-09T19:40:21.496Z,0.70
2018-02-09T19:42:49.146Z,0.80
2018-02-09T19:45:16.733Z,0.80
2018-02-09T19:47:44.363Z,0.80
2018-02-09T19:50:11.908Z,0.80
2018-02-09T19:52:39.456Z,0.80
2018-02-09T19:55:07.034Z,0.80
2018-02-09T19:57:34.560Z,0.80
2018-02-09T20:00:02.935Z,0.80
2018-02-09T20:02:30.490Z,0.80
2018-02-09T20:04:58.042Z,0.80
2018-02-09T20:07:25.614Z,0.90
2018-02-09T20:09:53.164Z,0.90
2018-02-09T20:12:20.903Z,0.80
2018-02-09T20:14:48.535Z,0.80
2018-02-09T20:17:16.206Z,0.80
2018-02-09T20:19:43.772Z,0.80
2018-02-09T20:22:11.527Z,0.80
2018-02-09T20:24:39.227Z,0.80
2018-02-09T20:27:06.785Z,0.80
2018-02-09T20:29:34.332Z,0.80
2018-02-09T20:32:01.886Z,0.80
2018-02-09T20:34:29.464Z,0.80
2018-02-09T20:36:57.003Z,0.80
2018-02-09T20:39:24.536Z,0.80
2018-02-09T20:41:52.098Z,0.80
2018-02-09T20:44:19.929Z,0.80
2018-02-09T20:46:47.532Z,0.80
2018-02-09T20:49:15.069Z,0.80
2018-02-09T20:51:44.379Z,0.80
2018-02-09T20:54:11.987Z,0.80
2018-02-09T20:56:39.580Z,0.90
2018-02-09T20:59:07.182Z,0.90
2018-02-09T21:01:34.765Z,0.90
2018-02-09T21:04:02.301Z,0.80
2018-02-09T21:06:29.851Z,0.90
2018-02-09T21:08:57.940Z,0.90
2018-02-09T21:11:25.616Z,0.80
2018-02-09T21:13:56.520Z,0.90
2018-02-09T21:16:24.188Z,0.90
2018-02-09T21:18:52.678Z,0.90
2018-02-09T21:21:20.309Z,0.90
2018-02-09T21:23:48.873Z,0.90
2018-02-09T21:26:17.227Z,0.90
2018-02-09T21:28:44.766Z,0.90
2018-02-09T21:31:12.383Z,0.90
2018-02-09T21:33:40.919Z,1.00
2018-02-09T21:36:08.533Z,0.90
2018-02-09T21:38:36.114Z,0.90
2018-02-09T21:41:03.707Z,1.00
2018-02-09T21:43:31.312Z,1.00
2018-02-09T21:45:58.891Z,1.00
2018-02-09T21:48:27.576Z,1.00
2018-02-09T21:50:55.321Z,1.00
2018-02-09T21:53:24.686Z,1.00
2018-02-09T21:55:52.274Z,1.00
2018-02-09T21:58:20.602Z,1.00
2018-02-09T22:00:48.206Z,1.00
2018-02-09T22:03:16.539Z,1.00
2018-02-09T22:05:45.048Z,0.90
2018-02-09T22:08:12.591Z,1.00
2018-02-09T22:10:40.198Z,1.00
2018-02-09T22:13:17.684Z,1.00
2018-02-09T22:15:48.491Z,1.00
2018-02-09T22:18:16.997Z,1.00
2018-02-09T22:20:45.318Z,1.00
2018-02-09T22:23:12.897Z,1.00
2018-02-09T22:25:40.533Z,1.00
2018-02-09T22:28:08.058Z,1.00
2018-02-09T22:30:36.398Z,1.10
2018-02-09T22:33:04.057Z,1.00
2018-02-09T22:35:32.569Z,1.10
2018-02-09T22:38:00.296Z,1.10
2018-02-09T22:40:27.912Z,1.00
2018-02-09T22:42:56.270Z,1.10
2018-02-09T22:45:23.862Z,1.10
2018-02-09T22:47:51.415Z,1.10
2018-02-09T22:50:18.997Z,1.10
2018-02-09T22:52:46.655Z,1.20
2018-02-09T22:55:14.246Z,1.20
2018-02-09T22:57:41.976Z,1.20
2018-02-09T23:00:09.548Z,1.30
2018-02-09T23:02:37.147Z,1.30
2018-02-09T23:05:06.039Z,1.30
2018-02-09T23:07:33.714Z,1.30
2018-02-09T23:10:01.227Z,1.30
2018-02-09T23:12:30.078Z,1.30
2018-02-09T23:14:57.692Z,1.30
2018-02-09T23:17:25.263Z,1.30
2018-02-09T23:19:54.931Z,1.30
2018-02-09T23:22:22.523Z,1.30
2018-02-09T23:24:50.878Z,1.40
2018-02-09T23:27:20.290Z,1.40
2018-02-09T23:29:48.426Z,1.40
2018-02-09T23:32:16.924Z,1.40
2018-02-09T23:34:44.571Z,1.40
2018-02-09T23:37:12.132Z,1.40
2018-02-09T23:39:40.071Z,1.40
2018-02-09T23:42:07.668Z,1.40
2018-02-09T23:44:35.236Z,1.40
2018-02-09T23:47:02.836Z,1.40
2018-02-09T23:49:30.647Z,1.40
2018-02-09T23:51:58.182Z,1.40
2018-02-09T23:54:26.548Z,1.40
2018-02-09T23:56:54.512Z,1.40
2018-02-09T23:59:22.208Z,1.40
